Timothy Mcallister — WDC8133 — position and weather

sailwx.info

Track history (hours):
 
Tides and Currents Weather Stations Pressure Air Temp Water Temp Dewpoint Dewpoint Depression Visibility Wind Speed Wind Dir Waves Ship Positions

Timothy Mcallister

Owner: McAllister Towing, Staten Island, NY. More information available from US FCC via Universal Licensing System and Coast Guard Vessel Documentation Center.

Last reported at 2018-Jan-23 05:30 UTC. Time now 2018-Jan-23 05:56 UTC.
Position N 39°16' W 076°35'.

Length 34 m; draft 3.8 m.

Type: Towing. MMSI: 367082130.

Date/timePositionNaut miles runAvg speedWind from/ knotsBaromVisibWave heightAir tempDewpointWater temp
2018-Jan-23 05:30N 39°16' W 076°35'0 0.0
2018-Jan-23 05:00N 39°16' W 076°35'0 0.0
2018-Jan-23 04:30N 39°16' W 076°35'0 0.0
2018-Jan-23 04:00N 39°16' W 076°35'0 0.0
2018-Jan-23 03:30N 39°16' W 076°35'0 0.0
2018-Jan-23 03:00N 39°16' W 076°35'0 0.0
2018-Jan-23 02:30N 39°16' W 076°35'0 0.0
2018-Jan-23 02:00N 39°16' W 076°35'0 0.0
2018-Jan-23 01:30N 39°16' W 076°35'0 0.0
2018-Jan-23 01:00N 39°16' W 076°35'0 0.0
2018-Jan-23 00:30N 39°16' W 076°35'0 0.0
2018-Jan-23 00:00N 39°16' W 076°35'0 0.0
2018-Jan-22 23:30N 39°16' W 076°35'0 0.0
2018-Jan-22 23:00N 39°16' W 076°35'0 0.0
2018-Jan-22 22:30N 39°16' W 076°35'0 0.0
2018-Jan-22 22:00N 39°16' W 076°35'0 0.0
2018-Jan-22 21:30N 39°16' W 076°35'0 0.0
2018-Jan-22 21:00N 39°16' W 076°35'0 0.0
2018-Jan-22 20:30N 39°16' W 076°35'0 0.0
2018-Jan-22 20:00N 39°16' W 076°35'0 0.0
2018-Jan-22 19:30N 39°16' W 076°35'0 0.0
2018-Jan-22 19:00N 39°16' W 076°35'0 0.0
2018-Jan-22 18:30N 39°16' W 076°35'0 0.0
2018-Jan-22 18:00N 39°16' W 076°35'0 0.0
2018-Jan-22 17:30N 39°16' W 076°35'0 0.0
2018-Jan-22 17:00N 39°16' W 076°35'0 0.0
2018-Jan-22 16:30N 39°16' W 076°35'0 0.0
2018-Jan-22 15:55N 39°16' W 076°35'0 0.0
2018-Jan-22 15:30N 39°16' W 076°35'0 0.0
2018-Jan-22 15:00N 39°16' W 076°35'0 0.0
2018-Jan-22 14:30N 39°16' W 076°35'0 0.0
2018-Jan-22 14:00N 39°16' W 076°35'0 0.0
2018-Jan-22 13:30N 39°16' W 076°35'0 0.0
2018-Jan-22 13:00N 39°16' W 076°35'0 0.0
2018-Jan-22 12:30N 39°16' W 076°35'0 0.0
2018-Jan-22 12:00N 39°16' W 076°35'0 0.0
2018-Jan-22 11:30N 39°16' W 076°35'0 0.0
2018-Jan-22 11:00N 39°16' W 076°35'0 0.0
2018-Jan-22 10:30N 39°16' W 076°35'0 0.0
2018-Jan-22 10:00N 39°16' W 076°35'0 0.0
2018-Jan-22 09:30N 39°16' W 076°35'0 0.0
2018-Jan-22 09:00N 39°16' W 076°35'0 0.0
2018-Jan-22 08:30N 39°16' W 076°35'2 3.2
2018-Jan-22 08:00N 39°15' W 076°33'1 2.7
2018-Jan-22 07:30N 39°14' W 076°32'1 1.8
2018-Jan-22 07:00N 39°13' W 076°32'1 1.9
2018-Jan-22 06:30N 39°14' W 076°32'0 0.0
2018-Jan-22 06:00N 39°14' W 076°32'0 0.0
2018-Jan-22 05:30N 39°14' W 076°32'0 0.2
2018-Jan-22 05:00N 39°14' W 076°32'3 5.6
2018-Jan-22 04:30N 39°16' W 076°35'0 0.0
2018-Jan-22 04:01N 39°16' W 076°35'0 0.0
2018-Jan-22 03:30N 39°16' W 076°35'0 0.0
2018-Jan-22 03:00N 39°16' W 076°35'0 0.0
2018-Jan-22 02:30N 39°16' W 076°35'0 0.0
2018-Jan-22 02:01N 39°16' W 076°35'0 0.0
2018-Jan-22 01:31N 39°16' W 076°35'0 0.0
2018-Jan-22 01:00N 39°16' W 076°35'0 0.0
2018-Jan-22 00:30N 39°16' W 076°35'0 0.0
2018-Jan-22 00:00N 39°16' W 076°35'0 0.0
2018-Jan-21 23:30N 39°16' W 076°35'0 0.0
2018-Jan-21 23:00N 39°16' W 076°35'0 0.0
2018-Jan-21 22:30N 39°16' W 076°35'0 0.0
2018-Jan-21 22:01N 39°16' W 076°35'0 0.0
2018-Jan-21 21:30N 39°16' W 076°35'0 0.0
2018-Jan-21 21:00N 39°16' W 076°35'0 0.0
2018-Jan-21 20:31N 39°16' W 076°35'0 0.0
2018-Jan-21 20:00N 39°16' W 076°35'0 0.0
2018-Jan-21 19:31N 39°16' W 076°35'0 0.0
2018-Jan-21 19:00N 39°16' W 076°35'0 0.0
2018-Jan-21 18:30N 39°16' W 076°35'0 0.0
2018-Jan-21 18:00N 39°16' W 076°35'0 0.0
2018-Jan-21 17:31N 39°16' W 076°35'0 0.0
2018-Jan-21 17:00N 39°16' W 076°35'0 0.0
2018-Jan-21 16:30N 39°16' W 076°35'0 0.2
2018-Jan-21 16:01N 39°16' W 076°35'0 0.2
2018-Jan-21 15:31N 39°16' W 076°35'0 0.0
2018-Jan-21 15:01N 39°16' W 076°35'1 1.1
2018-Jan-21 14:30N 39°17' W 076°35'1 1.1
2018-Jan-21 14:00N 39°16' W 076°35'0 0.0
2018-Jan-21 13:30N 39°16' W 076°35'0 0.0
2018-Jan-21 13:00N 39°16' W 076°35'0 0.0
2018-Jan-21 12:30N 39°16' W 076°35'0 0.0
2018-Jan-21 12:00N 39°16' W 076°35'1 1.9
2018-Jan-21 11:31N 39°16' W 076°34'0 0.5
2018-Jan-21 11:00N 39°15' W 076°34'2 4.3
2018-Jan-21 10:27N 39°13' W 076°32'2 5.0
2018-Jan-21 10:01N 39°15' W 076°34'1 2.6
2018-Jan-21 09:30N 39°16' W 076°35'0 0.0
2018-Jan-21 09:00N 39°16' W 076°35'0 0.0
2018-Jan-21 08:30N 39°16' W 076°35'0 0.0
2018-Jan-21 08:00N 39°16' W 076°35'0 0.0
2018-Jan-21 07:30N 39°16' W 076°35'0 0.0
2018-Jan-21 07:00N 39°16' W 076°35'0 0.0
2018-Jan-21 06:30N 39°16' W 076°35'0 0.0
2018-Jan-21 06:00N 39°16' W 076°35'0 0.0
2018-Jan-21 05:30N 39°16' W 076°35'0 0.0
2018-Jan-21 05:00N 39°16' W 076°35'0 0.0
2018-Jan-21 04:30N 39°16' W 076°35'1 2.6
2018-Jan-21 03:59N 39°15' W 076°34'0 0.8
2018-Jan-21 03:30N 39°15' W 076°33'2 3.3
2018-Jan-21 03:00N 39°16' W 076°35'0 0.0
2018-Jan-21 02:30N 39°16' W 076°35'0 0.0
2018-Jan-21 02:00N 39°16' W 076°35'0 0.0
2018-Jan-21 01:30N 39°16' W 076°35'0 0.0
2018-Jan-21 01:00N 39°16' W 076°35'0 0.0
2018-Jan-21 00:30N 39°16' W 076°35'0 0.8
2018-Jan-21 00:00N 39°16' W 076°34'0 0.1
2018-Jan-20 23:30N 39°16' W 076°34'1 1.4
2018-Jan-20 23:00N 39°15' W 076°34'4 7.0
2018-Jan-20 22:30N 39°13' W 076°31'2 3.6
2018-Jan-20 22:00N 39°13' W 076°29'1 1.5
2018-Jan-20 21:30N 39°12' W 076°29'2 3.8
2018-Jan-20 21:00N 39°13' W 076°31'4 8.9
2018-Jan-20 20:30N 39°16' W 076°35'0 0.0
2018-Jan-20 20:01N 39°16' W 076°35'0 0.0
2018-Jan-20 19:31N 39°16' W 076°35'0 0.0
2018-Jan-20 19:01N 39°16' W 076°35'0 0.1
2018-Jan-20 18:30N 39°16' W 076°35'3 5.9
2018-Jan-20 18:00N 39°14' W 076°32'3 5.9
2018-Jan-20 17:30N 39°16' W 076°35'0 0.0
2018-Jan-20 17:00N 39°16' W 076°35'0 0.0
2018-Jan-20 16:30N 39°16' W 076°35'0 0.0
2018-Jan-20 15:59N 39°16' W 076°35'0 0.0
2018-Jan-20 15:31N 39°16' W 076°35'0 0.0
2018-Jan-20 15:00N 39°16' W 076°35'0 1.0
2018-Jan-20 14:31N 39°17' W 076°35'0 1.0
2018-Jan-20 14:00N 39°16' W 076°35'0 0.0
2018-Jan-20 13:30N 39°16' W 076°35'0 0.0
2018-Jan-20 13:00N 39°16' W 076°35'0 0.0
2018-Jan-20 12:31N 39°16' W 076°35'0 0.0
2018-Jan-20 12:01N 39°16' W 076°35'0 0.0
2018-Jan-20 11:31N 39°16' W 076°35'0 0.0
2018-Jan-20 11:00N 39°16' W 076°35'0 0.0
2018-Jan-20 10:30N 39°16' W 076°35'2 3.1
2018-Jan-20 10:00N 39°15' W 076°33'1 1.4
2018-Jan-20 09:30N 39°15' W 076°33'2 3.4
2018-Jan-20 09:00N 39°13' W 076°32'4 7.5
2018-Jan-20 08:30N 39°16' W 076°35'0 0.1
2018-Jan-20 08:01N 39°16' W 076°35'0 0.0
2018-Jan-20 07:31N 39°16' W 076°35'0 0.0
2018-Jan-20 07:01N 39°16' W 076°35'0 0.0
2018-Jan-20 06:30N 39°16' W 076°35'0 0.0
2018-Jan-20 06:01N 39°16' W 076°35'0 0.0
2018-Jan-20 05:31N 39°16' W 076°35'0 0.0
2018-Jan-20 05:01N 39°16' W 076°35'0 0.0
2018-Jan-20 04:31N 39°16' W 076°35'0 0.0
2018-Jan-20 04:01N 39°16' W 076°35'2 3.1
2018-Jan-20 03:30N 39°15' W 076°33'2 3.1
2018-Jan-20 03:00N 39°14' W 076°32'1 1.8
2018-Jan-20 02:30N 39°14' W 076°33'2 2.8
2018-Jan-20 01:47N 39°15' W 076°35'1 4.3
2018-Jan-20 01:31N 39°16' W 076°35'0 0.0
2018-Jan-20 01:01N 39°16' W 076°35'0 0.0
2018-Jan-20 00:30N 39°16' W 076°35'0 0.0
2018-Jan-20 00:01N 39°16' W 076°35'0 0.0
2018-Jan-19 23:31N 39°16' W 076°35'0 0.0
2018-Jan-19 23:01N 39°16' W 076°35'0 0.0
2018-Jan-19 22:31N 39°16' W 076°35'0 0.0
2018-Jan-19 22:00N 39°16' W 076°35'0 0.0
2018-Jan-19 21:30N 39°16' W 076°35'0 0.0
2018-Jan-19 21:00N 39°16' W 076°35'0 0.0
2018-Jan-19 20:30N 39°16' W 076°35'0 0.0
2018-Jan-19 20:00N 39°16' W 076°35'0 0.0
2018-Jan-19 19:30N 39°16' W 076°35'0 0.0
2018-Jan-19 19:00N 39°16' W 076°35'0 0.0
2018-Jan-19 18:30N 39°16' W 076°35'0 0.6
2018-Jan-19 18:00N 39°16' W 076°35'1 2.0
2018-Jan-19 17:30N 39°15' W 076°35'0 0.2
2018-Jan-19 17:00N 39°15' W 076°35'1 3.0
2018-Jan-19 16:30N 39°15' W 076°33'1 1.3
2018-Jan-19 16:00N 39°15' W 076°32'1 1.4
2018-Jan-19 15:27N 39°14' W 076°33'2 4.0
2018-Jan-19 15:00N 39°15' W 076°34'0 0.0
2018-Jan-19 14:30N 39°15' W 076°34'0 0.0
2018-Jan-19 14:00N 39°15' W 076°34'0 0.0
2018-Jan-19 13:30N 39°15' W 076°34'0 0.0
2018-Jan-19 13:00N 39°15' W 076°34'0 0.0
2018-Jan-19 12:27N 39°15' W 076°34'0 0.8
2018-Jan-19 12:00N 39°15' W 076°34'1 1.1
2018-Jan-19 11:30N 39°15' W 076°35'1 1.3
2018-Jan-19 10:58N 39°15' W 076°34'3 5.8
2018-Jan-19 10:30N 39°13' W 076°32'3 5.4
2018-Jan-19 10:00N 39°15' W 076°34'0 0.0
2018-Jan-19 09:30N 39°15' W 076°34'0 0.0
2018-Jan-19 09:00N 39°15' W 076°34'0 0.0
2018-Jan-19 08:30N 39°15' W 076°34'0 0.0
2018-Jan-19 08:00N 39°15' W 076°34'0 0.0
2018-Jan-19 07:30N 39°15' W 076°34'0 0.0
2018-Jan-19 07:00N 39°15' W 076°34'0 0.0
2018-Jan-19 06:30N 39°15' W 076°34'1 1.5
2018-Jan-19 05:59N 39°15' W 076°35'0 0.6
2018-Jan-19 05:31N 39°15' W 076°35'2 3.4
2018-Jan-19 05:00N 39°14' W 076°33'0 0.8
2018-Jan-19 04:30N 39°15' W 076°32'3 5.0
2018-Jan-19 04:00N 39°16' W 076°35'0 0.0
2018-Jan-19 03:30N 39°16' W 076°35'0 0.0
2018-Jan-19 03:00N 39°16' W 076°35'0 0.0
2018-Jan-19 02:31N 39°16' W 076°35'0 0.0
2018-Jan-19 02:01N 39°16' W 076°35'0 0.0
2018-Jan-19 01:30N 39°16' W 076°35'0 0.0
2018-Jan-19 01:00N 39°16' W 076°35'0 0.0
2018-Jan-19 00:31N 39°16' W 076°35'0 0.0
2018-Jan-19 00:00N 39°16' W 076°35'1 2.0
2018-Jan-18 23:24N 39°15' W 076°35'1 2.9
2018-Jan-18 23:00N 39°16' W 076°35'0 0.0
2018-Jan-18 22:30N 39°16' W 076°35'0 0.0
2018-Jan-18 22:00N 39°16' W 076°35'0 0.0
2018-Jan-18 21:30N 39°16' W 076°35'0 0.0
2018-Jan-18 21:00N 39°16' W 076°35'0 0.0
2018-Jan-18 20:30N 39°16' W 076°35'0 0.0
2018-Jan-18 19:59N 39°16' W 076°35'0 0.0
2018-Jan-18 19:30N 39°16' W 076°35'0 0.0
2018-Jan-18 19:00N 39°16' W 076°35'0 0.0
2018-Jan-18 18:30N 39°16' W 076°35'0 0.0
2018-Jan-18 18:00N 39°16' W 076°35'0 0.0
2018-Jan-18 17:30N 39°16' W 076°35'0 0.0
2018-Jan-18 17:00N 39°16' W 076°35'0 0.0
2018-Jan-18 16:30N 39°16' W 076°35'0 0.1
2018-Jan-18 16:00N 39°16' W 076°35'0 0.1
2018-Jan-18 15:30N 39°16' W 076°35'0 0.0
2018-Jan-18 15:00N 39°16' W 076°35'0 0.0
2018-Jan-18 14:30N 39°16' W 076°35'0 0.0
2018-Jan-18 14:00N 39°16' W 076°35'0 0.0
2018-Jan-18 13:30N 39°16' W 076°35'0 0.0
2018-Jan-18 13:00N 39°16' W 076°35'0 0.0
2018-Jan-18 12:30N 39°16' W 076°35'3 5.3
2018-Jan-18 12:00N 39°15' W 076°32'0 0.3
2018-Jan-18 11:30N 39°14' W 076°32'1 2.6
2018-Jan-18 11:00N 39°13' W 076°32'4 7.8
2018-Jan-18 10:31N 39°16' W 076°35'0 0.0
2018-Jan-18 10:00N 39°16' W 076°35'0 0.0
2018-Jan-18 09:30N 39°16' W 076°35'0 0.0
2018-Jan-18 09:00N 39°16' W 076°35'0 0.0
2018-Jan-18 08:30N 39°16' W 076°35'0 0.0
2018-Jan-18 08:00N 39°16' W 076°35'0 0.0
2018-Jan-18 07:30N 39°16' W 076°35'0 0.0
2018-Jan-18 07:00N 39°16' W 076°35'0 0.0
2018-Jan-18 06:30N 39°16' W 076°35'0 0.0
2018-Jan-18 06:00N 39°16' W 076°35'0 0.0
2018-Jan-18 05:30N 39°16' W 076°35'0 0.0
2018-Jan-18 05:00N 39°16' W 076°35'0 0.0
2018-Jan-18 04:30N 39°16' W 076°35'0 0.0
2018-Jan-18 04:00N 39°16' W 076°35'0 0.0
2018-Jan-18 03:30N 39°16' W 076°35'0 0.0
2018-Jan-18 03:00N 39°16' W 076°35'0 0.0
2018-Jan-18 02:30N 39°16' W 076°35'0 0.0
2018-Jan-18 02:00N 39°16' W 076°35'0 0.0
2018-Jan-18 01:30N 39°16' W 076°35'0 0.0
2018-Jan-18 01:00N 39°16' W 076°35'0 0.0
2018-Jan-18 00:00N 39°16' W 076°35'0 0.1
2018-Jan-17 23:57N 39°16' W 076°35'  
Track history (hours):
 
Tides and Currents Weather Stations Pressure Air Temp Water Temp Dewpoint Dewpoint Depression Visibility Wind Speed Wind Dir Waves Ship Positions

Timothy Mcallister

Owner: McAllister Towing, Staten Island, NY. More information available from US FCC via Universal Licensing System and Coast Guard Vessel Documentation Center.

Last reported at 2018-Jan-23 05:30 UTC. Time now 2018-Jan-23 05:56 UTC.
Position N 39°16' W 076°35'.

Length 34 m; draft 3.8 m.

Type: Towing. MMSI: 367082130.

Date/timePositionNaut miles runAvg speedWind from/ knotsBaromVisibWave heightAir tempDewpointWater temp
2018-Jan-23 05:30N 39°16' W 076°35'0 0.0
2018-Jan-23 05:00N 39°16' W 076°35'0 0.0
2018-Jan-23 04:30N 39°16' W 076°35'0 0.0
2018-Jan-23 04:00N 39°16' W 076°35'0 0.0
2018-Jan-23 03:30N 39°16' W 076°35'0 0.0
2018-Jan-23 03:00N 39°16' W 076°35'0 0.0
2018-Jan-23 02:30N 39°16' W 076°35'0 0.0
2018-Jan-23 02:00N 39°16' W 076°35'0 0.0
2018-Jan-23 01:30N 39°16' W 076°35'0 0.0
2018-Jan-23 01:00N 39°16' W 076°35'0 0.0
2018-Jan-23 00:30N 39°16' W 076°35'0 0.0
2018-Jan-23 00:00N 39°16' W 076°35'0 0.0
2018-Jan-22 23:30N 39°16' W 076°35'0 0.0
2018-Jan-22 23:00N 39°16' W 076°35'0 0.0
2018-Jan-22 22:30N 39°16' W 076°35'0 0.0
2018-Jan-22 22:00N 39°16' W 076°35'0 0.0
2018-Jan-22 21:30N 39°16' W 076°35'0 0.0
2018-Jan-22 21:00N 39°16' W 076°35'0 0.0
2018-Jan-22 20:30N 39°16' W 076°35'0 0.0
2018-Jan-22 20:00N 39°16' W 076°35'0 0.0
2018-Jan-22 19:30N 39°16' W 076°35'0 0.0
2018-Jan-22 19:00N 39°16' W 076°35'0 0.0
2018-Jan-22 18:30N 39°16' W 076°35'0 0.0
2018-Jan-22 18:00N 39°16' W 076°35'0 0.0
2018-Jan-22 17:30N 39°16' W 076°35'0 0.0
2018-Jan-22 17:00N 39°16' W 076°35'0 0.0
2018-Jan-22 16:30N 39°16' W 076°35'0 0.0
2018-Jan-22 15:55N 39°16' W 076°35'0 0.0
2018-Jan-22 15:30N 39°16' W 076°35'0 0.0
2018-Jan-22 15:00N 39°16' W 076°35'0 0.0
2018-Jan-22 14:30N 39°16' W 076°35'0 0.0
2018-Jan-22 14:00N 39°16' W 076°35'0 0.0
2018-Jan-22 13:30N 39°16' W 076°35'0 0.0
2018-Jan-22 13:00N 39°16' W 076°35'0 0.0
2018-Jan-22 12:30N 39°16' W 076°35'0 0.0
2018-Jan-22 12:00N 39°16' W 076°35'0 0.0
2018-Jan-22 11:30N 39°16' W 076°35'0 0.0
2018-Jan-22 11:00N 39°16' W 076°35'0 0.0
2018-Jan-22 10:30N 39°16' W 076°35'0 0.0
2018-Jan-22 10:00N 39°16' W 076°35'0 0.0
2018-Jan-22 09:30N 39°16' W 076°35'0 0.0
2018-Jan-22 09:00N 39°16' W 076°35'0 0.0
2018-Jan-22 08:30N 39°16' W 076°35'2 3.2
2018-Jan-22 08:00N 39°15' W 076°33'1 2.7
2018-Jan-22 07:30N 39°14' W 076°32'1 1.8
2018-Jan-22 07:00N 39°13' W 076°32'1 1.9
2018-Jan-22 06:30N 39°14' W 076°32'0 0.0
2018-Jan-22 06:00N 39°14' W 076°32'0 0.0
2018-Jan-22 05:30N 39°14' W 076°32'0 0.2
2018-Jan-22 05:00N 39°14' W 076°32'3 5.6
2018-Jan-22 04:30N 39°16' W 076°35'0 0.0
2018-Jan-22 04:01N 39°16' W 076°35'0 0.0
2018-Jan-22 03:30N 39°16' W 076°35'0 0.0
2018-Jan-22 03:00N 39°16' W 076°35'0 0.0
2018-Jan-22 02:30N 39°16' W 076°35'0 0.0
2018-Jan-22 02:01N 39°16' W 076°35'0 0.0
2018-Jan-22 01:31N 39°16' W 076°35'0 0.0
2018-Jan-22 01:00N 39°16' W 076°35'0 0.0
2018-Jan-22 00:30N 39°16' W 076°35'0 0.0
2018-Jan-22 00:00N 39°16' W 076°35'0 0.0
2018-Jan-21 23:30N 39°16' W 076°35'0 0.0
2018-Jan-21 23:00N 39°16' W 076°35'0 0.0
2018-Jan-21 22:30N 39°16' W 076°35'0 0.0
2018-Jan-21 22:01N 39°16' W 076°35'0 0.0
2018-Jan-21 21:30N 39°16' W 076°35'0 0.0
2018-Jan-21 21:00N 39°16' W 076°35'0 0.0
2018-Jan-21 20:31N 39°16' W 076°35'0 0.0
2018-Jan-21 20:00N 39°16' W 076°35'0 0.0
2018-Jan-21 19:31N 39°16' W 076°35'0 0.0
2018-Jan-21 19:00N 39°16' W 076°35'0 0.0
2018-Jan-21 18:30N 39°16' W 076°35'0 0.0
2018-Jan-21 18:00N 39°16' W 076°35'0 0.0
2018-Jan-21 17:31N 39°16' W 076°35'0 0.0
2018-Jan-21 17:00N 39°16' W 076°35'0 0.0
2018-Jan-21 16:30N 39°16' W 076°35'0 0.2
2018-Jan-21 16:01N 39°16' W 076°35'0 0.2
2018-Jan-21 15:31N 39°16' W 076°35'0 0.0
2018-Jan-21 15:01N 39°16' W 076°35'1 1.1
2018-Jan-21 14:30N 39°17' W 076°35'1 1.1
2018-Jan-21 14:00N 39°16' W 076°35'0 0.0
2018-Jan-21 13:30N 39°16' W 076°35'0 0.0
2018-Jan-21 13:00N 39°16' W 076°35'0 0.0
2018-Jan-21 12:30N 39°16' W 076°35'0 0.0
2018-Jan-21 12:00N 39°16' W 076°35'1 1.9
2018-Jan-21 11:31N 39°16' W 076°34'0 0.5
2018-Jan-21 11:00N 39°15' W 076°34'2 4.3
2018-Jan-21 10:27N 39°13' W 076°32'2 5.0
2018-Jan-21 10:01N 39°15' W 076°34'1 2.6
2018-Jan-21 09:30N 39°16' W 076°35'0 0.0
2018-Jan-21 09:00N 39°16' W 076°35'0 0.0
2018-Jan-21 08:30N 39°16' W 076°35'0 0.0
2018-Jan-21 08:00N 39°16' W 076°35'0 0.0
2018-Jan-21 07:30N 39°16' W 076°35'0 0.0
2018-Jan-21 07:00N 39°16' W 076°35'0 0.0
2018-Jan-21 06:30N 39°16' W 076°35'0 0.0
2018-Jan-21 06:00N 39°16' W 076°35'0 0.0
2018-Jan-21 05:30N 39°16' W 076°35'0 0.0
2018-Jan-21 05:00N 39°16' W 076°35'0 0.0
2018-Jan-21 04:30N 39°16' W 076°35'1 2.6
2018-Jan-21 03:59N 39°15' W 076°34'0 0.8
2018-Jan-21 03:30N 39°15' W 076°33'2 3.3
2018-Jan-21 03:00N 39°16' W 076°35'0 0.0
2018-Jan-21 02:30N 39°16' W 076°35'0 0.0
2018-Jan-21 02:00N 39°16' W 076°35'0 0.0
2018-Jan-21 01:30N 39°16' W 076°35'0 0.0
2018-Jan-21 01:00N 39°16' W 076°35'0 0.0
2018-Jan-21 00:30N 39°16' W 076°35'0 0.8
2018-Jan-21 00:00N 39°16' W 076°34'0 0.1
2018-Jan-20 23:30N 39°16' W 076°34'1 1.4
2018-Jan-20 23:00N 39°15' W 076°34'4 7.0
2018-Jan-20 22:30N 39°13' W 076°31'2 3.6
2018-Jan-20 22:00N 39°13' W 076°29'1 1.5
2018-Jan-20 21:30N 39°12' W 076°29'2 3.8
2018-Jan-20 21:00N 39°13' W 076°31'4 8.9
2018-Jan-20 20:30N 39°16' W 076°35'0 0.0
2018-Jan-20 20:01N 39°16' W 076°35'0 0.0
2018-Jan-20 19:31N 39°16' W 076°35'0 0.0
2018-Jan-20 19:01N 39°16' W 076°35'0 0.1
2018-Jan-20 18:30N 39°16' W 076°35'3 5.9
2018-Jan-20 18:00N 39°14' W 076°32'3 5.9
2018-Jan-20 17:30N 39°16' W 076°35'0 0.0
2018-Jan-20 17:00N 39°16' W 076°35'0 0.0
2018-Jan-20 16:30N 39°16' W 076°35'0 0.0
2018-Jan-20 15:59N 39°16' W 076°35'0 0.0
2018-Jan-20 15:31N 39°16' W 076°35'0 0.0
2018-Jan-20 15:00N 39°16' W 076°35'0 1.0
2018-Jan-20 14:31N 39°17' W 076°35'0 1.0
2018-Jan-20 14:00N 39°16' W 076°35'0 0.0
2018-Jan-20 13:30N 39°16' W 076°35'0 0.0
2018-Jan-20 13:00N 39°16' W 076°35'0 0.0
2018-Jan-20 12:31N 39°16' W 076°35'0 0.0
2018-Jan-20 12:01N 39°16' W 076°35'0 0.0
2018-Jan-20 11:31N 39°16' W 076°35'0 0.0
2018-Jan-20 11:00N 39°16' W 076°35'0 0.0
2018-Jan-20 10:30N 39°16' W 076°35'2 3.1
2018-Jan-20 10:00N 39°15' W 076°33'1 1.4
2018-Jan-20 09:30N 39°15' W 076°33'2 3.4
2018-Jan-20 09:00N 39°13' W 076°32'4 7.5
2018-Jan-20 08:30N 39°16' W 076°35'0 0.1
2018-Jan-20 08:01N 39°16' W 076°35'0 0.0
2018-Jan-20 07:31N 39°16' W 076°35'0 0.0
2018-Jan-20 07:01N 39°16' W 076°35'0 0.0
2018-Jan-20 06:30N 39°16' W 076°35'0 0.0
2018-Jan-20 06:01N 39°16' W 076°35'0 0.0
2018-Jan-20 05:31N 39°16' W 076°35'0 0.0
2018-Jan-20 05:01N 39°16' W 076°35'0 0.0
2018-Jan-20 04:31N 39°16' W 076°35'0 0.0
2018-Jan-20 04:01N 39°16' W 076°35'2 3.1
2018-Jan-20 03:30N 39°15' W 076°33'2 3.1
2018-Jan-20 03:00N 39°14' W 076°32'1 1.8
2018-Jan-20 02:30N 39°14' W 076°33'2 2.8
2018-Jan-20 01:47N 39°15' W 076°35'1 4.3
2018-Jan-20 01:31N 39°16' W 076°35'0 0.0
2018-Jan-20 01:01N 39°16' W 076°35'0 0.0
2018-Jan-20 00:30N 39°16' W 076°35'0 0.0
2018-Jan-20 00:01N 39°16' W 076°35'0 0.0
2018-Jan-19 23:31N 39°16' W 076°35'0 0.0
2018-Jan-19 23:01N 39°16' W 076°35'0 0.0
2018-Jan-19 22:31N 39°16' W 076°35'0 0.0
2018-Jan-19 22:00N 39°16' W 076°35'0 0.0
2018-Jan-19 21:30N 39°16' W 076°35'0 0.0
2018-Jan-19 21:00N 39°16' W 076°35'0 0.0
2018-Jan-19 20:30N 39°16' W 076°35'0 0.0
2018-Jan-19 20:00N 39°16' W 076°35'0 0.0
2018-Jan-19 19:30N 39°16' W 076°35'0 0.0
2018-Jan-19 19:00N 39°16' W 076°35'0 0.0
2018-Jan-19 18:30N 39°16' W 076°35'0 0.6
2018-Jan-19 18:00N 39°16' W 076°35'1 2.0
2018-Jan-19 17:30N 39°15' W 076°35'0 0.2
2018-Jan-19 17:00N 39°15' W 076°35'1 3.0
2018-Jan-19 16:30N 39°15' W 076°33'1 1.3
2018-Jan-19 16:00N 39°15' W 076°32'1 1.4
2018-Jan-19 15:27N 39°14' W 076°33'2 4.0
2018-Jan-19 15:00N 39°15' W 076°34'0 0.0
2018-Jan-19 14:30N 39°15' W 076°34'0 0.0
2018-Jan-19 14:00N 39°15' W 076°34'0 0.0
2018-Jan-19 13:30N 39°15' W 076°34'0 0.0
2018-Jan-19 13:00N 39°15' W 076°34'0 0.0
2018-Jan-19 12:27N 39°15' W 076°34'0 0.8
2018-Jan-19 12:00N 39°15' W 076°34'1 1.1
2018-Jan-19 11:30N 39°15' W 076°35'1 1.3
2018-Jan-19 10:58N 39°15' W 076°34'3 5.8
2018-Jan-19 10:30N 39°13' W 076°32'3 5.4
2018-Jan-19 10:00N 39°15' W 076°34'0 0.0
2018-Jan-19 09:30N 39°15' W 076°34'0 0.0
2018-Jan-19 09:00N 39°15' W 076°34'0 0.0
2018-Jan-19 08:30N 39°15' W 076°34'0 0.0
2018-Jan-19 08:00N 39°15' W 076°34'0 0.0
2018-Jan-19 07:30N 39°15' W 076°34'0 0.0
2018-Jan-19 07:00N 39°15' W 076°34'0 0.0
2018-Jan-19 06:30N 39°15' W 076°34'1 1.5
2018-Jan-19 05:59N 39°15' W 076°35'0 0.6
2018-Jan-19 05:31N 39°15' W 076°35'2 3.4
2018-Jan-19 05:00N 39°14' W 076°33'0 0.8
2018-Jan-19 04:30N 39°15' W 076°32'3 5.0
2018-Jan-19 04:00N 39°16' W 076°35'0 0.0
2018-Jan-19 03:30N 39°16' W 076°35'0 0.0
2018-Jan-19 03:00N 39°16' W 076°35'0 0.0
2018-Jan-19 02:31N 39°16' W 076°35'0 0.0
2018-Jan-19 02:01N 39°16' W 076°35'0 0.0
2018-Jan-19 01:30N 39°16' W 076°35'0 0.0
2018-Jan-19 01:00N 39°16' W 076°35'0 0.0
2018-Jan-19 00:31N 39°16' W 076°35'0 0.0
2018-Jan-19 00:00N 39°16' W 076°35'1 2.0
2018-Jan-18 23:24N 39°15' W 076°35'1 2.9
2018-Jan-18 23:00N 39°16' W 076°35'0 0.0
2018-Jan-18 22:30N 39°16' W 076°35'0 0.0
2018-Jan-18 22:00N 39°16' W 076°35'0 0.0
2018-Jan-18 21:30N 39°16' W 076°35'0 0.0
2018-Jan-18 21:00N 39°16' W 076°35'0 0.0
2018-Jan-18 20:30N 39°16' W 076°35'0 0.0
2018-Jan-18 19:59N 39°16' W 076°35'0 0.0
2018-Jan-18 19:30N 39°16' W 076°35'0 0.0
2018-Jan-18 19:00N 39°16' W 076°35'0 0.0
2018-Jan-18 18:30N 39°16' W 076°35'0 0.0
2018-Jan-18 18:00N 39°16' W 076°35'0 0.0
2018-Jan-18 17:30N 39°16' W 076°35'0 0.0
2018-Jan-18 17:00N 39°16' W 076°35'0 0.0
2018-Jan-18 16:30N 39°16' W 076°35'0 0.1
2018-Jan-18 16:00N 39°16' W 076°35'0 0.1
2018-Jan-18 15:30N 39°16' W 076°35'0 0.0
2018-Jan-18 15:00N 39°16' W 076°35'0 0.0
2018-Jan-18 14:30N 39°16' W 076°35'0 0.0
2018-Jan-18 14:00N 39°16' W 076°35'0 0.0
2018-Jan-18 13:30N 39°16' W 076°35'0 0.0
2018-Jan-18 13:00N 39°16' W 076°35'0 0.0
2018-Jan-18 12:30N 39°16' W 076°35'3 5.3
2018-Jan-18 12:00N 39°15' W 076°32'0 0.3
2018-Jan-18 11:30N 39°14' W 076°32'1 2.6
2018-Jan-18 11:00N 39°13' W 076°32'4 7.8
2018-Jan-18 10:31N 39°16' W 076°35'0 0.0
2018-Jan-18 10:00N 39°16' W 076°35'0 0.0
2018-Jan-18 09:30N 39°16' W 076°35'0 0.0
2018-Jan-18 09:00N 39°16' W 076°35'0 0.0
2018-Jan-18 08:30N 39°16' W 076°35'0 0.0
2018-Jan-18 08:00N 39°16' W 076°35'0 0.0
2018-Jan-18 07:30N 39°16' W 076°35'0 0.0
2018-Jan-18 07:00N 39°16' W 076°35'0 0.0
2018-Jan-18 06:30N 39°16' W 076°35'0 0.0
2018-Jan-18 06:00N 39°16' W 076°35'0 0.0
2018-Jan-18 05:30N 39°16' W 076°35'0 0.0
2018-Jan-18 05:00N 39°16' W 076°35'0 0.0
2018-Jan-18 04:30N 39°16' W 076°35'0 0.0
2018-Jan-18 04:00N 39°16' W 076°35'0 0.0
2018-Jan-18 03:30N 39°16' W 076°35'0 0.0
2018-Jan-18 03:00N 39°16' W 076°35'0 0.0
2018-Jan-18 02:30N 39°16' W 076°35'0 0.0
2018-Jan-18 02:00N 39°16' W 076°35'0 0.0
2018-Jan-18 01:30N 39°16' W 076°35'0 0.0
2018-Jan-18 01:00N 39°16' W 076°35'0 0.0
2018-Jan-18 00:00N 39°16' W 076°35'0 0.1
2018-Jan-17 23:57N 39°16' W 076°35'  

Dump ship's entire track history